createdAt,value
2023-05-17T00:00:52.140Z,1.07
2023-05-17T00:03:19.850Z,1.03
2023-05-17T00:05:47.404Z,1.37
2023-05-17T00:08:15.014Z,1.30
2023-05-17T00:10:43.319Z,1.40
2023-05-17T00:13:11.095Z,1.40
2023-05-17T00:15:38.660Z,1.13
2023-05-17T00:18:06.310Z,1.30
2023-05-17T00:20:34.657Z,1.20
2023-05-17T00:23:02.973Z,1.30
2023-05-17T00:25:30.771Z,1.20
2023-05-17T00:27:58.494Z,1.17
2023-05-17T00:30:26.051Z,1.20
2023-05-17T00:32:53.796Z,1.40
2023-05-17T00:35:21.668Z,1.33
2023-05-17T00:37:49.311Z,1.27
2023-05-17T00:40:16.872Z,1.40
2023-05-17T00:42:45.133Z,1.17
2023-05-17T00:45:13.062Z,1.30
2023-05-17T00:47:41.494Z,1.67
2023-05-17T00:50:10.223Z,1.47
2023-05-17T00:52:38.976Z,1.80
2023-05-17T00:55:07.189Z,1.40
2023-05-17T00:57:35.622Z,1.30
2023-05-17T01:00:04.816Z,1.30
2023-05-17T01:02:32.473Z,1.30
2023-05-17T01:05:00.908Z,1.50
2023-05-17T01:07:29.096Z,1.30
2023-05-17T01:09:57.287Z,1.67
2023-05-17T01:12:49.049Z,1.40
2023-05-17T01:15:33.290Z,1.50
2023-05-17T01:18:23.945Z,1.37
2023-05-17T01:20:56.123Z,1.20
2023-05-17T01:23:54.382Z,1.30
2023-05-17T01:26:39.427Z,1.43
2023-05-17T01:29:09.700Z,1.20
2023-05-17T01:31:38.977Z,1.60
2023-05-17T01:34:10.633Z,1.17
2023-05-17T01:36:38.492Z,1.30
2023-05-17T01:39:06.255Z,1.50
2023-05-17T01:41:42.311Z,1.10
2023-05-17T01:44:35.619Z,1.23
2023-05-17T01:47:15.357Z,1.73
2023-05-17T01:49:52.743Z,1.80
2023-05-17T01:52:48.167Z,1.27
2023-05-17T01:55:32.026Z,1.37
2023-05-17T01:58:01.696Z,1.88
2023-05-17T02:00:30.106Z,1.70
2023-05-17T02:02:58.573Z,1.70
2023-05-17T02:05:26.345Z,1.33
2023-05-17T02:07:53.986Z,1.80
2023-05-17T02:10:22.337Z,1.50
2023-05-17T02:12:49.876Z,1.30
2023-05-17T02:15:17.512Z,1.90
2023-05-17T02:17:45.888Z,1.20
2023-05-17T02:20:15.505Z,1.43
2023-05-17T02:22:43.287Z,2.17
2023-05-17T02:25:11.202Z,1.73
2023-05-17T02:27:41.334Z,1.63
2023-05-17T02:30:09.630Z,1.77
2023-05-17T02:32:39.007Z,1.87
2023-05-17T02:35:08.517Z,1.50
2023-05-17T02:37:36.601Z,1.87
2023-05-17T02:40:09.819Z,1.50
2023-05-17T02:42:38.127Z,1.70
2023-05-17T02:45:06.571Z,1.73
2023-05-17T02:47:34.202Z,2.20
2023-05-17T02:50:01.818Z,2.27
2023-05-17T02:52:30.322Z,1.63
2023-05-17T02:54:58.110Z,1.87
2023-05-17T02:57:25.811Z,2.10
2023-05-17T02:59:54.148Z,2.00
2023-05-17T03:02:21.826Z,2.33
2023-05-17T03:04:49.536Z,1.47
2023-05-17T03:07:18.032Z,1.73
2023-05-17T03:10:11.111Z,1.90
2023-05-17T03:12:43.333Z,1.67
2023-05-17T03:15:11.447Z,2.30
2023-05-17T03:17:39.114Z,2.10
2023-05-17T03:20:08.792Z,2.77
2023-05-17T03:22:37.052Z,1.90
2023-05-17T03:25:05.834Z,2.20
2023-05-17T03:27:34.682Z,1.73
2023-05-17T03:30:02.623Z,1.97
2023-05-17T03:32:32.328Z,1.73
2023-05-17T03:35:00.461Z,1.70
2023-05-17T03:37:29.038Z,2.30
2023-05-17T03:39:56.722Z,1.60
2023-05-17T03:42:24.993Z,2.13
2023-05-17T03:44:52.641Z,2.00
2023-05-17T03:47:23.884Z,1.73
2023-05-17T03:49:51.702Z,1.60
2023-05-17T03:52:19.315Z,1.70
2023-05-17T03:54:48.240Z,1.50
2023-05-17T03:57:17.250Z,1.83
2023-05-17T03:59:45.872Z,1.43
2023-05-17T04:02:16.577Z,1.70
2023-05-17T04:04:51.442Z,1.67
2023-05-17T04:07:19.908Z,2.47
2023-05-17T04:09:47.699Z,1.70
2023-05-17T04:12:16.387Z,1.60
2023-05-17T04:14:44.347Z,2.20
2023-05-17T04:17:12.611Z,2.20
2023-05-17T04:19:41.853Z,2.10
2023-05-17T04:22:09.527Z,1.90
2023-05-17T04:24:37.615Z,1.90
2023-05-17T04:27:07.054Z,1.73
2023-05-17T04:29:35.623Z,2.00
2023-05-17T04:32:03.446Z,1.50
2023-05-17T04:34:32.137Z,2.20
2023-05-17T04:37:01.288Z,2.00
2023-05-17T04:39:30.948Z,2.00
2023-05-17T04:41:59.488Z,2.10
2023-05-17T04:44:27.542Z,2.30
2023-05-17T04:46:56.453Z,1.93
2023-05-17T04:49:25.109Z,2.63
2023-05-17T04:51:53.004Z,1.67
2023-05-17T04:54:20.967Z,2.00
2023-05-17T04:56:48.963Z,2.17
2023-05-17T04:59:24.399Z,2.33
2023-05-17T05:01:52.061Z,2.90
2023-05-17T05:04:19.942Z,2.00
2023-05-17T05:06:49.656Z,1.80
2023-05-17T05:09:17.846Z,1.60
2023-05-17T05:11:46.285Z,2.50
2023-05-17T05:14:14.165Z,2.17
2023-05-17T05:16:42.400Z,2.03
2023-05-17T05:19:10.520Z,1.93
2023-05-17T05:21:38.847Z,2.63
2023-05-17T05:24:09.066Z,2.63
2023-05-17T05:26:37.136Z,3.20
2023-05-17T05:29:06.298Z,2.50
2023-05-17T05:31:34.441Z,2.27
2023-05-17T05:34:03.696Z,2.30
2023-05-17T05:36:31.516Z,3.07
2023-05-17T05:39:00.913Z,2.83
2023-05-17T05:41:31.268Z,2.50
2023-05-17T05:43:58.890Z,2.17
2023-05-17T05:46:26.949Z,2.40
2023-05-17T05:48:55.360Z,2.03
2023-05-17T05:51:23.123Z,2.57
2023-05-17T05:53:52.065Z,2.60
2023-05-17T05:56:20.814Z,2.70
2023-05-17T05:58:48.624Z,2.33
2023-05-17T06:01:16.774Z,1.73
2023-05-17T06:03:44.579Z,2.33
2023-05-17T06:06:12.777Z,2.07
2023-05-17T06:08:40.490Z,2.00
2023-05-17T06:11:08.068Z,4.30
2023-05-17T06:13:35.616Z,2.47
2023-05-17T06:16:03.555Z,3.00
2023-05-17T06:18:31.205Z,2.33
2023-05-17T06:20:59.004Z,2.73
2023-05-17T06:23:26.797Z,2.43
2023-05-17T06:25:54.332Z,2.50
2023-05-17T06:28:21.852Z,2.27
2023-05-17T06:30:49.426Z,3.57
2023-05-17T06:33:17.071Z,2.80
2023-05-17T06:35:55.597Z,2.50
2023-05-17T06:38:24.281Z,2.73
2023-05-17T06:40:54.475Z,3.00
2023-05-17T06:43:22.437Z,2.90
2023-05-17T06:45:50.948Z,3.33
2023-05-17T06:48:18.636Z,2.50
2023-05-17T06:50:46.383Z,2.80
2023-05-17T06:53:13.954Z,2.87
2023-05-17T06:55:41.745Z,2.70
2023-05-17T06:58:09.601Z,3.93
2023-05-17T07:00:37.228Z,2.97
2023-05-17T07:03:05.047Z,3.60
2023-05-17T07:05:33.184Z,3.03
2023-05-17T07:08:01.804Z,2.60
2023-05-17T07:10:29.544Z,2.60
2023-05-17T07:12:57.113Z,3.13
2023-05-17T07:15:25.312Z,3.40
2023-05-17T07:17:53.151Z,3.47
2023-05-17T07:20:21.351Z,2.77
2023-05-17T07:22:50.270Z,3.00
2023-05-17T07:25:18.933Z,2.73
2023-05-17T07:27:47.077Z,3.67
2023-05-17T07:30:15.546Z,4.17
2023-05-17T07:32:43.158Z,3.50
2023-05-17T07:35:10.875Z,4.13
2023-05-17T07:37:38.411Z,3.00
2023-05-17T07:40:07.190Z,3.47
2023-05-17T07:42:34.794Z,3.33
2023-05-17T07:45:02.812Z,3.20
2023-05-17T07:47:31.010Z,3.13
2023-05-17T07:49:58.596Z,3.37
2023-05-17T07:52:26.129Z,3.30
2023-05-17T07:54:53.666Z,3.53
2023-05-17T07:57:21.217Z,2.77
2023-05-17T07:59:48.755Z,3.30
2023-05-17T08:02:18.835Z,3.17
2023-05-17T08:04:46.781Z,3.00
2023-05-17T08:07:16.675Z,3.20
2023-05-17T08:09:45.516Z,3.17
2023-05-17T08:12:13.241Z,3.47
2023-05-17T08:14:40.814Z,3.43
2023-05-17T08:17:08.369Z,2.83
2023-05-17T08:19:36.283Z,3.90
2023-05-17T08:22:04.191Z,3.20
2023-05-17T08:24:31.715Z,3.80
2023-05-17T08:26:59.452Z,3.50
2023-05-17T08:29:27.173Z,3.27
2023-05-17T08:31:55.135Z,2.87
2023-05-17T08:34:23.063Z,2.80
2023-05-17T08:36:50.685Z,3.57
2023-05-17T08:39:18.223Z,3.00
2023-05-17T08:41:48.395Z,2.80
2023-05-17T08:44:17.155Z,2.47
2023-05-17T08:46:52.297Z,3.07
2023-05-17T08:49:25.750Z,2.43
2023-05-17T08:51:59.539Z,2.83
2023-05-17T08:54:27.841Z,3.05
2023-05-17T08:57:00.395Z,3.03
2023-05-17T08:59:33.977Z,3.27
2023-05-17T09:02:02.706Z,2.88
2023-05-17T09:04:31.937Z,2.73
2023-05-17T09:07:00.134Z,2.97
2023-05-17T09:09:27.950Z,2.90
2023-05-17T09:11:55.602Z,3.17
2023-05-17T09:14:23.490Z,2.70
2023-05-17T09:16:58.228Z,3.00
2023-05-17T09:19:26.228Z,3.30
2023-05-17T09:21:59.943Z,4.07
2023-05-17T09:24:31.609Z,3.08
2023-05-17T09:27:04.226Z,3.47
2023-05-17T09:29:33.302Z,2.40
2023-05-17T09:32:14.837Z,3.28
2023-05-17T09:34:45.710Z,3.10
2023-05-17T09:37:16.804Z,2.85
2023-05-17T09:39:46.739Z,2.73
2023-05-17T09:42:16.675Z,2.50
2023-05-17T09:44:57.674Z,3.00
2023-05-17T09:47:30.319Z,3.30
2023-05-17T09:50:03.152Z,3.00
2023-05-17T09:52:31.927Z,3.53
2023-05-17T09:55:00.859Z,3.20
2023-05-17T09:57:38.979Z,3.53
2023-05-17T10:00:12.382Z,3.10
2023-05-17T10:02:47.905Z,2.72
2023-05-17T10:05:17.082Z,3.05
2023-05-17T10:07:46.205Z,3.72
2023-05-17T10:10:14.285Z,2.97
2023-05-17T10:12:42.545Z,3.58
2023-05-17T10:15:12.684Z,3.63
2023-05-17T10:17:43.907Z,4.60
2023-05-17T10:20:15.627Z,2.83
2023-05-17T10:22:43.753Z,3.00
2023-05-17T10:25:12.612Z,3.10
2023-05-17T10:27:41.892Z,3.00
2023-05-17T10:30:11.528Z,3.08
2023-05-17T10:32:39.862Z,3.22
2023-05-17T10:35:12.000Z,3.17
2023-05-17T10:37:41.706Z,3.13
2023-05-17T10:40:14.079Z,3.17
2023-05-17T10:42:52.246Z,2.95
2023-05-17T10:45:25.660Z,3.28
2023-05-17T10:47:54.012Z,2.88
2023-05-17T10:50:24.018Z,2.40
2023-05-17T10:52:53.442Z,2.38
2023-05-17T10:55:24.982Z,3.63
2023-05-17T10:58:21.253Z,3.08
2023-05-17T11:00:55.772Z,3.42
2023-05-17T11:03:30.601Z,2.90
2023-05-17T11:06:24.373Z,3.03
2023-05-17T11:09:16.693Z,2.80
2023-05-17T11:12:03.965Z,3.85
2023-05-17T11:14:48.339Z,2.83
2023-05-17T11:17:27.654Z,2.63
2023-05-17T11:19:55.326Z,2.55
2023-05-17T11:22:27.597Z,3.13
2023-05-17T11:24:58.142Z,3.80
2023-05-17T11:27:29.586Z,2.40
2023-05-17T11:29:58.709Z,2.65
2023-05-17T11:32:29.580Z,2.60
2023-05-17T11:35:01.194Z,2.50
2023-05-17T11:37:31.118Z,2.53
2023-05-17T11:40:07.930Z,2.60
2023-05-17T11:42:38.384Z,2.40
2023-05-17T11:45:07.166Z,2.38
2023-05-17T11:47:39.522Z,2.13
2023-05-17T11:50:07.844Z,2.50
2023-05-17T11:52:35.466Z,2.85
2023-05-17T11:55:03.912Z,2.83
2023-05-17T11:57:32.430Z,2.75
2023-05-17T12:00:07.912Z,2.80
2023-05-17T12:02:41.070Z,2.88
2023-05-17T12:05:09.453Z,2.08
2023-05-17T12:07:37.499Z,2.63
2023-05-17T12:10:06.499Z,2.58
2023-05-17T12:12:34.089Z,2.88
2023-05-17T12:15:01.973Z,3.10
2023-05-17T12:17:37.096Z,2.85
2023-05-17T12:20:11.512Z,2.63
2023-05-17T12:22:56.066Z,3.05
2023-05-17T12:25:29.482Z,3.03
2023-05-17T12:28:18.925Z,3.25
2023-05-17T12:30:46.940Z,3.15
2023-05-17T12:33:14.900Z,3.15
2023-05-17T12:35:42.813Z,3.03
2023-05-17T12:38:11.472Z,2.97
2023-05-17T12:40:43.249Z,3.58
2023-05-17T12:43:11.203Z,2.90
2023-05-17T12:45:42.061Z,2.78
2023-05-17T12:48:09.640Z,2.80
2023-05-17T12:50:37.247Z,3.13
2023-05-17T12:53:09.154Z,2.72
2023-05-17T12:55:38.135Z,2.97
2023-05-17T12:58:05.804Z,3.20
2023-05-17T13:00:33.393Z,3.13
2023-05-17T13:03:01.261Z,2.67
2023-05-17T13:05:28.976Z,3.88
2023-05-17T13:07:56.482Z,2.72
2023-05-17T13:10:28.824Z,2.40
2023-05-17T13:12:58.773Z,2.60
2023-05-17T13:15:32.314Z,2.47
2023-05-17T13:18:12.125Z,3.45
2023-05-17T13:20:40.071Z,3.28
2023-05-17T13:23:07.679Z,2.92
2023-05-17T13:25:36.723Z,3.05
2023-05-17T13:28:04.408Z,3.03
2023-05-17T13:30:32.081Z,3.20
2023-05-17T13:32:59.923Z,3.80
2023-05-17T13:35:27.528Z,3.45
2023-05-17T13:37:55.194Z,2.90
2023-05-17T13:40:22.993Z,3.15
2023-05-17T13:42:50.573Z,3.30
2023-05-17T13:45:18.102Z,3.15
2023-05-17T13:47:45.831Z,3.13
2023-05-17T13:50:17.092Z,2.90
2023-05-17T13:52:44.685Z,2.80
2023-05-17T13:55:12.289Z,2.78
2023-05-17T13:57:39.879Z,2.95
2023-05-17T14:00:08.390Z,3.17
2023-05-17T14:02:37.090Z,2.53
2023-05-17T14:05:05.391Z,3.10
2023-05-17T14:07:33.055Z,2.72
2023-05-17T14:10:00.963Z,2.97
2023-05-17T14:12:28.939Z,2.60
2023-05-17T14:14:56.635Z,3.33
2023-05-17T14:17:24.281Z,2.97
2023-05-17T14:19:52.539Z,3.05
2023-05-17T14:22:20.089Z,2.47
2023-05-17T14:24:47.660Z,2.78
2023-05-17T14:27:15.190Z,2.95
2023-05-17T14:29:42.748Z,3.10
2023-05-17T14:32:12.794Z,3.33
2023-05-17T14:34:40.554Z,2.95
2023-05-17T14:37:08.575Z,2.97
2023-05-17T14:39:36.149Z,3.00
2023-05-17T14:42:03.991Z,3.65
2023-05-17T14:44:31.594Z,2.90
2023-05-17T14:46:59.207Z,2.90
2023-05-17T14:49:26.721Z,3.10
2023-05-17T14:51:54.237Z,3.78
2023-05-17T14:54:22.045Z,4.38
2023-05-17T14:56:49.630Z,4.55
2023-05-17T14:59:17.202Z,4.85
2023-05-17T15:01:44.744Z,3.35
2023-05-17T15:04:13.123Z,5.05
2023-05-17T15:06:41.591Z,2.80
2023-05-17T15:09:14.091Z,3.92
2023-05-17T15:11:41.981Z,4.43
2023-05-17T15:14:09.866Z,3.97
2023-05-17T15:16:38.265Z,4.15
2023-05-17T15:19:06.488Z,4.78
2023-05-17T15:21:34.120Z,5.10
2023-05-17T15:24:01.713Z,4.35
2023-05-17T15:26:29.251Z,3.50
2023-05-17T15:28:57.489Z,4.22
2023-05-17T15:31:25.021Z,3.10
2023-05-17T15:33:52.732Z,3.60
2023-05-17T15:36:20.439Z,4.15
2023-05-17T15:38:48.003Z,3.15
2023-05-17T15:41:17.632Z,3.40
2023-05-17T15:43:45.516Z,3.47
2023-05-17T15:46:13.151Z,3.42
2023-05-17T15:48:41.007Z,3.65
2023-05-17T15:51:08.723Z,3.65
2023-05-17T15:53:36.241Z,3.45
2023-05-17T15:56:04.168Z,3.75
2023-05-17T15:58:33.312Z,4.15
2023-05-17T16:01:05.568Z,4.13
2023-05-17T16:03:33.873Z,4.13
2023-05-17T16:06:01.653Z,4.45
2023-05-17T16:08:29.227Z,5.50
2023-05-17T16:10:56.769Z,5.85
2023-05-17T16:13:24.785Z,5.53
2023-05-17T16:15:52.490Z,6.35
2023-05-17T16:18:20.904Z,4.63
2023-05-17T16:21:04.036Z,6.38
2023-05-17T16:23:31.686Z,5.97
2023-05-17T16:25:59.421Z,6.13
2023-05-17T16:28:27.029Z,4.32
2023-05-17T16:30:54.685Z,4.32
2023-05-17T16:33:22.400Z,4.93
2023-05-17T16:35:50.043Z,8.25
2023-05-17T16:38:17.621Z,5.88
2023-05-17T16:40:45.212Z,3.97
2023-05-17T16:43:15.898Z,4.70
2023-05-17T16:45:44.849Z,4.68
2023-05-17T16:48:14.152Z,5.07
2023-05-17T16:50:42.239Z,3.65
2023-05-17T16:53:09.875Z,4.47
2023-05-17T16:55:37.488Z,5.93
2023-05-17T16:58:05.972Z,4.70
2023-05-17T17:00:34.128Z,4.53
2023-05-17T17:03:01.850Z,4.25
2023-05-17T17:05:29.481Z,5.38
2023-05-17T17:07:57.577Z,6.05
2023-05-17T17:10:25.154Z,4.00
2023-05-17T17:12:52.723Z,5.53
2023-05-17T17:15:20.668Z,4.82
2023-05-17T17:17:48.281Z,4.00
2023-05-17T17:20:15.914Z,3.78
2023-05-17T17:22:43.474Z,3.65
2023-05-17T17:25:11.301Z,3.80
2023-05-17T17:27:38.923Z,4.60
2023-05-17T17:30:07.595Z,4.28
2023-05-17T17:32:35.227Z,3.45
2023-05-17T17:35:03.207Z,3.15
2023-05-17T17:37:30.830Z,3.50
2023-05-17T17:39:58.458Z,3.08
2023-05-17T17:42:26.072Z,3.38
2023-05-17T17:44:54.636Z,3.45
2023-05-17T17:47:22.427Z,3.85
2023-05-17T17:49:50.306Z,3.40
2023-05-17T17:52:17.884Z,4.18
2023-05-17T17:54:46.212Z,7.53
2023-05-17T17:57:14.093Z,6.45
2023-05-17T17:59:41.624Z,4.25
2023-05-17T18:02:09.180Z,4.10
2023-05-17T18:04:36.834Z,4.88
2023-05-17T18:07:04.498Z,5.35
2023-05-17T18:09:32.121Z,3.80
2023-05-17T18:11:59.669Z,3.47
2023-05-17T18:14:27.200Z,2.92
2023-05-17T18:16:54.852Z,4.05
2023-05-17T18:19:22.575Z,3.67
2023-05-17T18:21:50.689Z,3.97
2023-05-17T18:24:18.367Z,3.58
2023-05-17T18:26:45.907Z,4.63
2023-05-17T18:29:13.469Z,3.63
2023-05-17T18:31:41.644Z,4.20
2023-05-17T18:34:09.324Z,3.78
2023-05-17T18:36:36.855Z,3.33
2023-05-17T18:39:05.583Z,2.83
2023-05-17T18:41:33.116Z,3.42
2023-05-17T18:44:02.697Z,3.92
2023-05-17T18:46:30.342Z,3.55
2023-05-17T18:48:58.112Z,4.63
2023-05-17T18:51:25.758Z,4.53
2023-05-17T18:53:53.714Z,5.68
2023-05-17T18:56:23.356Z,7.00
2023-05-17T18:58:52.891Z,5.68
2023-05-17T19:01:21.112Z,5.05
2023-05-17T19:03:51.392Z,3.83
2023-05-17T19:06:19.640Z,3.58
2023-05-17T19:08:49.546Z,4.38
2023-05-17T19:11:18.221Z,5.18
2023-05-17T19:13:45.921Z,12.75
2023-05-17T19:16:15.492Z,11.32
2023-05-17T19:18:43.247Z,7.00
2023-05-17T19:21:11.844Z,5.45
2023-05-17T19:23:39.479Z,4.18
2023-05-17T19:26:07.137Z,4.30
2023-05-17T19:28:35.798Z,4.07
2023-05-17T19:31:04.493Z,4.07
2023-05-17T19:33:33.924Z,4.50
2023-05-17T19:36:01.611Z,6.05
2023-05-17T19:38:29.295Z,4.22
2023-05-17T19:40:56.838Z,3.95
2023-05-17T19:43:25.248Z,5.13
2023-05-17T19:45:53.093Z,6.28
2023-05-17T19:48:20.760Z,6.10
2023-05-17T19:50:48.678Z,5.55
2023-05-17T19:53:16.210Z,4.22
2023-05-17T19:55:43.824Z,5.05
2023-05-17T19:58:11.503Z,4.28
2023-05-17T20:00:39.108Z,5.15
2023-05-17T20:03:06.785Z,4.88
2023-05-17T20:05:34.418Z,4.50
2023-05-17T20:08:06.475Z,4.70
2023-05-17T20:10:34.603Z,4.33
2023-05-17T20:13:02.375Z,3.53
2023-05-17T20:15:29.961Z,3.53
2023-05-17T20:17:58.213Z,3.33
2023-05-17T20:20:26.213Z,3.47
2023-05-17T20:22:53.758Z,3.33
2023-05-17T20:25:21.741Z,3.77
2023-05-17T20:27:49.315Z,5.57
2023-05-17T20:30:16.908Z,5.23
2023-05-17T20:32:44.524Z,4.43
2023-05-17T20:35:12.097Z,4.50
2023-05-17T20:37:39.679Z,3.93
2023-05-17T20:40:09.095Z,6.13
2023-05-17T20:42:37.618Z,4.30
2023-05-17T20:45:06.027Z,4.20
2023-05-17T20:47:33.729Z,4.00
2023-05-17T20:50:01.554Z,4.17
2023-05-17T20:52:38.975Z,4.23
2023-05-17T20:55:09.365Z,3.97
2023-05-17T20:57:37.028Z,4.63
2023-05-17T21:00:08.505Z,4.67
2023-05-17T21:02:40.637Z,5.97
2023-05-17T21:05:09.081Z,5.33
2023-05-17T21:07:39.908Z,5.77
2023-05-17T21:10:09.293Z,4.80
2023-05-17T21:12:36.808Z,4.80
2023-05-17T21:15:16.417Z,5.07
2023-05-17T21:17:52.480Z,4.70
2023-05-17T21:20:21.453Z,4.43
2023-05-17T21:22:50.590Z,4.23
2023-05-17T21:25:18.243Z,4.13
2023-05-17T21:27:45.987Z,5.13
2023-05-17T21:30:13.560Z,4.87
2023-05-17T21:32:41.576Z,4.50
2023-05-17T21:35:09.344Z,4.10
2023-05-17T21:37:39.871Z,3.97
2023-05-17T21:40:08.822Z,4.70
2023-05-17T21:42:36.434Z,5.77
2023-05-17T21:45:04.571Z,5.23
2023-05-17T21:47:32.400Z,5.00
2023-05-17T21:50:00.232Z,4.27
2023-05-17T21:52:27.858Z,4.00
2023-05-17T21:54:55.460Z,4.97
2023-05-17T21:57:23.110Z,3.90
2023-05-17T21:59:51.273Z,4.40
2023-05-17T22:02:19.108Z,3.70
2023-05-17T22:04:46.888Z,4.13
2023-05-17T22:07:14.452Z,4.83
2023-05-17T22:09:41.986Z,4.80
2023-05-17T22:12:12.093Z,5.23
2023-05-17T22:14:44.503Z,4.77
2023-05-17T22:17:12.170Z,4.63
2023-05-17T22:19:41.572Z,4.40
2023-05-17T22:22:09.325Z,4.23
2023-05-17T22:24:37.674Z,3.57
2023-05-17T22:27:05.644Z,9.13
2023-05-17T22:29:33.250Z,7.67
2023-05-17T22:32:00.897Z,8.77
2023-05-17T22:34:29.127Z,7.57
2023-05-17T22:36:57.243Z,4.93
2023-05-17T22:39:24.823Z,4.13
2023-05-17T22:41:52.596Z,4.17
2023-05-17T22:44:21.903Z,4.10
2023-05-17T22:46:49.841Z,3.97
2023-05-17T22:49:18.407Z,4.27
2023-05-17T22:51:46.751Z,4.00
2023-05-17T22:54:14.291Z,3.77
2023-05-17T22:56:41.877Z,4.47
2023-05-17T22:59:09.453Z,4.40
2023-05-17T23:01:37.091Z,4.20
2023-05-17T23:04:04.911Z,4.07
2023-05-17T23:06:34.031Z,4.33
2023-05-17T23:09:05.103Z,4.57
2023-05-17T23:11:34.769Z,4.43
2023-05-17T23:14:02.351Z,4.27
2023-05-17T23:16:29.911Z,6.03
2023-05-17T23:18:58.094Z,4.50
2023-05-17T23:21:25.709Z,3.70
2023-05-17T23:23:53.581Z,5.20
2023-05-17T23:26:22.045Z,4.47
2023-05-17T23:28:50.617Z,4.53
2023-05-17T23:31:18.179Z,4.40
2023-05-17T23:33:45.746Z,4.27
2023-05-17T23:36:13.311Z,5.90
2023-05-17T23:38:41.057Z,4.03
2023-05-17T23:41:11.512Z,4.90
2023-05-17T23:43:39.055Z,4.23
2023-05-17T23:46:06.804Z,4.03
2023-05-17T23:48:34.348Z,4.40
2023-05-17T23:51:01.945Z,4.77
2023-05-17T23:53:29.508Z,4.30
2023-05-17T23:55:57.034Z,4.20
2023-05-17T23:58:24.678Z,4.23
